sensor_id;sensor_type;location;lat;lon;timestamp;temperature;humidity
7290;DHT22;63176;52.678;13.250;2022-09-01T00:01:27;15.20;99.90
7290;DHT22;63176;52.678;13.250;2022-09-01T00:03:54;15.10;99.90
7290;DHT22;63176;52.678;13.250;2022-09-01T00:06:23;15.10;99.90
7290;DHT22;63176;52.678;13.250;2022-09-01T00:08:50;15.00;99.90
7290;DHT22;63176;52.678;13.250;2022-09-01T00:11:16;15.10;99.90
7290;DHT22;63176;52.678;13.250;2022-09-01T00:13:42;15.10;99.90
7290;DHT22;63176;52.678;13.250;2022-09-01T00:16:08;15.00;99.90
7290;DHT22;63176;52.678;13.250;2022-09-01T00:18:42;15.00;99.90
7290;DHT22;63176;52.678;13.250;2022-09-01T00:21:09;15.00;99.90
7290;DHT22;63176;52.678;13.250;2022-09-01T00:23:35;15.00;99.90
7290;DHT22;63176;52.678;13.250;2022-09-01T00:26:02;15.10;99.90
7290;DHT22;63176;52.678;13.250;2022-09-01T00:28:28;15.10;99.90
7290;DHT22;63176;52.678;13.250;2022-09-01T00:30:54;15.20;99.90
7290;DHT22;63176;52.678;13.250;2022-09-01T00:33:19;15.20;99.90
7290;DHT22;63176;52.678;13.250;2022-09-01T00:35:45;15.30;99.90
7290;DHT22;63176;52.678;13.250;2022-09-01T00:38:11;15.30;99.90
7290;DHT22;63176;52.678;13.250;2022-09-01T00:40:37;15.30;99.90
7290;DHT22;63176;52.678;13.250;2022-09-01T00:43:34;15.30;99.90
7290;DHT22;63176;52.678;13.250;2022-09-01T00:46:01;15.40;99.90
7290;DHT22;63176;52.678;13.250;2022-09-01T00:48:27;15.40;99.90
7290;DHT22;63176;52.678;13.250;2022-09-01T00:50:53;15.40;99.90
7290;DHT22;63176;52.678;13.250;2022-09-01T00:53:19;15.40;99.90
7290;DHT22;63176;52.678;13.250;2022-09-01T00:55:45;15.40;99.90
7290;DHT22;63176;52.678;13.250;2022-09-01T00:58:11;15.40;99.90
7290;DHT22;63176;52.678;13.250;2022-09-01T01:00:38;15.40;99.90
7290;DHT22;63176;52.678;13.250;2022-09-01T01:03:06;15.40;99.90
7290;DHT22;63176;52.678;13.250;2022-09-01T01:05:37;15.40;99.90
7290;DHT22;63176;52.678;13.250;2022-09-01T01:08:06;15.40;99.90
7290;DHT22;63176;52.678;13.250;2022-09-01T01:10:37;15.40;99.90
7290;DHT22;63176;52.678;13.250;2022-09-01T01:13:08;15.40;99.90
7290;DHT22;63176;52.678;13.250;2022-09-01T01:15:35;15.50;99.90
7290;DHT22;63176;52.678;13.250;2022-09-01T01:18:04;15.50;99.90
7290;DHT22;63176;52.678;13.250;2022-09-01T01:20:32;15.40;99.90
7290;DHT22;63176;52.678;13.250;2022-09-01T01:23:39;15.50;99.90
7290;DHT22;63176;52.678;13.250;2022-09-01T01:26:06;15.50;99.90
7290;DHT22;63176;52.678;13.250;2022-09-01T01:28:38;15.40;99.90
7290;DHT22;63176;52.678;13.250;2022-09-01T01:31:11;15.40;99.90
7290;DHT22;63176;52.678;13.250;2022-09-01T01:36:11;15.40;99.90
7290;DHT22;63176;52.678;13.250;2022-09-01T01:38:44;15.30;99.90
7290;DHT22;63176;52.678;13.250;2022-09-01T01:41:12;15.30;99.90
7290;DHT22;63176;52.678;13.250;2022-09-01T01:43:39;15.30;99.90
7290;DHT22;63176;52.678;13.250;2022-09-01T01:46:07;15.30;99.90
7290;DHT22;63176;52.678;13.250;2022-09-01T01:48:35;15.30;99.90
7290;DHT22;63176;52.678;13.250;2022-09-01T01:51:02;15.30;99.90
7290;DHT22;63176;52.678;13.250;2022-09-01T01:53:29;15.30;99.90
7290;DHT22;63176;52.678;13.250;2022-09-01T01:55:55;15.20;99.90
7290;DHT22;63176;52.678;13.250;2022-09-01T01:58:23;15.20;99.90
7290;DHT22;63176;52.678;13.250;2022-09-01T02:00:51;15.10;99.90
7290;DHT22;63176;52.678;13.250;2022-09-01T02:03:20;15.00;99.90
7290;DHT22;63176;52.678;13.250;2022-09-01T02:05:48;14.90;99.90
7290;DHT22;63176;52.678;13.250;2022-09-01T02:08:15;14.70;99.90
7290;DHT22;63176;52.678;13.250;2022-09-01T02:10:44;14.60;99.90
7290;DHT22;63176;52.678;13.250;2022-09-01T02:13:12;14.50;99.90
7290;DHT22;63176;52.678;13.250;2022-09-01T02:15:44;14.40;99.90
7290;DHT22;63176;52.678;13.250;2022-09-01T02:18:25;14.40;99.90
7290;DHT22;63176;52.678;13.250;2022-09-01T02:20:54;14.30;99.90
7290;DHT22;63176;52.678;13.250;2022-09-01T02:23:21;14.20;99.90
7290;DHT22;63176;52.678;13.250;2022-09-01T02:25:53;14.10;99.90
7290;DHT22;63176;52.678;13.250;2022-09-01T02:28:20;14.10;99.90
7290;DHT22;63176;52.678;13.250;2022-09-01T02:30:49;14.00;99.90
7290;DHT22;63176;52.678;13.250;2022-09-01T02:33:24;13.90;99.90
7290;DHT22;63176;52.678;13.250;2022-09-01T02:35:54;13.90;99.90
7290;DHT22;63176;52.678;13.250;2022-09-01T02:38:20;13.90;99.90
7290;DHT22;63176;52.678;13.250;2022-09-01T02:40:48;13.80;99.90
7290;DHT22;63176;52.678;13.250;2022-09-01T02:43:15;13.70;99.90
7290;DHT22;63176;52.678;13.250;2022-09-01T02:45:45;13.60;99.90
7290;DHT22;63176;52.678;13.250;2022-09-01T02:48:12;13.60;99.90
7290;DHT22;63176;52.678;13.250;2022-09-01T02:50:39;13.50;99.90
7290;DHT22;63176;52.678;13.250;2022-09-01T02:53:07;13.40;99.90
7290;DHT22;63176;52.678;13.250;2022-09-01T02:55:41;13.40;99.90
7290;DHT22;63176;52.678;13.250;2022-09-01T02:58:07;13.30;99.90
7290;DHT22;63176;52.678;13.250;2022-09-01T03:00:35;13.20;99.90
7290;DHT22;63176;52.678;13.250;2022-09-01T03:03:05;13.20;99.90
7290;DHT22;63176;52.678;13.250;2022-09-01T03:05:32;13.10;99.90
7290;DHT22;63176;52.678;13.250;2022-09-01T03:08:01;13.10;99.90
7290;DHT22;63176;52.678;13.250;2022-09-01T03:10:31;13.00;99.90
7290;DHT22;63176;52.678;13.250;2022-09-01T03:13:05;13.00;99.90
7290;DHT22;63176;52.678;13.250;2022-09-01T03:15:34;12.90;99.90
7290;DHT22;63176;52.678;13.250;2022-09-01T03:18:01;12.90;99.90
7290;DHT22;63176;52.678;13.250;2022-09-01T03:20:29;12.90;99.90
7290;DHT22;63176;52.678;13.250;2022-09-01T03:23:02;12.90;99.90
7290;DHT22;63176;52.678;13.250;2022-09-01T03:25:30;12.80;99.90
7290;DHT22;63176;52.678;13.250;2022-09-01T03:27:57;12.90;99.90
7290;DHT22;63176;52.678;13.250;2022-09-01T03:30:33;12.80;99.90
7290;DHT22;63176;52.678;13.250;2022-09-01T03:33:01;12.70;99.90
7290;DHT22;63176;52.678;13.250;2022-09-01T03:35:28;12.70;99.90
7290;DHT22;63176;52.678;13.250;2022-09-01T03:37:55;12.70;99.90
7290;DHT22;63176;52.678;13.250;2022-09-01T03:40:25;12.70;99.90
7290;DHT22;63176;52.678;13.250;2022-09-01T03:42:55;12.70;99.90
7290;DHT22;63176;52.678;13.250;2022-09-01T03:45:21;12.60;99.90
7290;DHT22;63176;52.678;13.250;2022-09-01T03:47:51;12.70;99.90
7290;DHT22;63176;52.678;13.250;2022-09-01T03:50:18;12.60;99.90
7290;DHT22;63176;52.678;13.250;2022-09-01T03:52:50;12.60;99.90
7290;DHT22;63176;52.678;13.250;2022-09-01T03:55:17;12.50;99.90
7290;DHT22;63176;52.678;13.250;2022-09-01T03:57:54;12.50;99.90
7290;DHT22;63176;52.678;13.250;2022-09-01T04:00:22;12.50;99.90
7290;DHT22;63176;52.678;13.250;2022-09-01T04:02:50;12.60;99.90
7290;DHT22;63176;52.678;13.250;2022-09-01T04:05:19;12.50;99.90
7290;DHT22;63176;52.678;13.250;2022-09-01T04:07:50;12.50;99.90
7290;DHT22;63176;52.678;13.250;2022-09-01T04:10:17;12.40;99.90
7290;DHT22;63176;52.678;13.250;2022-09-01T04:12:44;12.40;99.90
7290;DHT22;63176;52.678;13.250;2022-09-01T04:15:11;12.40;99.90
7290;DHT22;63176;52.678;13.250;2022-09-01T04:17:37;12.40;99.90
7290;DHT22;63176;52.678;13.250;2022-09-01T04:20:21;12.40;99.90
7290;DHT22;63176;52.678;13.250;2022-09-01T04:22:48;12.40;99.90
7290;DHT22;63176;52.678;13.250;2022-09-01T04:25:19;12.40;99.90
7290;DHT22;63176;52.678;13.250;2022-09-01T04:27:51;12.40;99.90
7290;DHT22;63176;52.678;13.250;2022-09-01T04:30:22;12.40;99.90
7290;DHT22;63176;52.678;13.250;2022-09-01T04:32:58;12.40;99.90
7290;DHT22;63176;52.678;13.250;2022-09-01T04:35:23;12.40;99.90
7290;DHT22;63176;52.678;13.250;2022-09-01T04:37:57;12.40;99.90
7290;DHT22;63176;52.678;13.250;2022-09-01T04:40:24;12.40;99.90
7290;DHT22;63176;52.678;13.250;2022-09-01T04:42:51;12.40;99.90
7290;DHT22;63176;52.678;13.250;2022-09-01T04:45:17;12.50;99.90
7290;DHT22;63176;52.678;13.250;2022-09-01T04:47:44;12.40;99.90
7290;DHT22;63176;52.678;13.250;2022-09-01T04:50:11;12.40;99.90
7290;DHT22;63176;52.678;13.250;2022-09-01T04:52:43;12.40;99.90
7290;DHT22;63176;52.678;13.250;2022-09-01T04:55:13;12.40;99.90
7290;DHT22;63176;52.678;13.250;2022-09-01T04:57:48;12.40;99.90
7290;DHT22;63176;52.678;13.250;2022-09-01T05:00:16;12.50;99.90
7290;DHT22;63176;52.678;13.250;2022-09-01T05:02:53;12.50;99.90
7290;DHT22;63176;52.678;13.250;2022-09-01T05:05:21;12.60;99.90
7290;DHT22;63176;52.678;13.250;2022-09-01T05:07:47;12.60;99.90
7290;DHT22;63176;52.678;13.250;2022-09-01T05:10:20;12.60;99.90
7290;DHT22;63176;52.678;13.250;2022-09-01T05:12:46;12.70;99.90
7290;DHT22;63176;52.678;13.250;2022-09-01T05:15:14;12.70;99.90
7290;DHT22;63176;52.678;13.250;2022-09-01T05:17:39;12.80;99.90
7290;DHT22;63176;52.678;13.250;2022-09-01T05:20:06;12.80;99.90
7290;DHT22;63176;52.678;13.250;2022-09-01T05:22:33;12.90;99.90
7290;DHT22;63176;52.678;13.250;2022-09-01T05:25:00;12.90;99.90
7290;DHT22;63176;52.678;13.250;2022-09-01T05:27:36;13.00;99.90
7290;DHT22;63176;52.678;13.250;2022-09-01T05:30:05;13.10;99.90
7290;DHT22;63176;52.678;13.250;2022-09-01T05:32:34;13.10;99.90
7290;DHT22;63176;52.678;13.250;2022-09-01T05:35:05;13.20;99.90
7290;DHT22;63176;52.678;13.250;2022-09-01T05:37:36;13.30;99.90
7290;DHT22;63176;52.678;13.250;2022-09-01T05:40:06;13.40;99.90
7290;DHT22;63176;52.678;13.250;2022-09-01T05:42:34;13.40;99.90
7290;DHT22;63176;52.678;13.250;2022-09-01T05:45:04;13.50;99.90
7290;DHT22;63176;52.678;13.250;2022-09-01T05:47:30;13.50;99.90
7290;DHT22;63176;52.678;13.250;2022-09-01T05:50:03;13.60;99.90
7290;DHT22;63176;52.678;13.250;2022-09-01T05:52:33;13.70;99.90
7290;DHT22;63176;52.678;13.250;2022-09-01T05:54:58;13.80;99.90
7290;DHT22;63176;52.678;13.250;2022-09-01T05:57:25;13.90;99.90
7290;DHT22;63176;52.678;13.250;2022-09-01T05:59:51;13.90;99.90
7290;DHT22;63176;52.678;13.250;2022-09-01T06:02:22;14.00;99.90
7290;DHT22;63176;52.678;13.250;2022-09-01T06:04:48;14.10;99.90
7290;DHT22;63176;52.678;13.250;2022-09-01T06:07:15;14.10;99.90
7290;DHT22;63176;52.678;13.250;2022-09-01T06:09:45;14.20;99.90
7290;DHT22;63176;52.678;13.250;2022-09-01T06:12:11;14.30;99.90
7290;DHT22;63176;52.678;13.250;2022-09-01T06:14:43;14.30;99.90
7290;DHT22;63176;52.678;13.250;2022-09-01T06:17:09;14.40;99.90
7290;DHT22;63176;52.678;13.250;2022-09-01T06:19:36;14.50;99.90
7290;DHT22;63176;52.678;13.250;2022-09-01T06:22:02;14.50;99.90
7290;DHT22;63176;52.678;13.250;2022-09-01T06:24:28;14.60;99.90
7290;DHT22;63176;52.678;13.250;2022-09-01T06:26:54;14.60;99.90
7290;DHT22;63176;52.678;13.250;2022-09-01T06:29:19;14.70;99.90
7290;DHT22;63176;52.678;13.250;2022-09-01T06:31:46;14.80;99.90
7290;DHT22;63176;52.678;13.250;2022-09-01T06:34:17;14.80;99.90
7290;DHT22;63176;52.678;13.250;2022-09-01T06:36:45;14.90;99.90
7290;DHT22;63176;52.678;13.250;2022-09-01T06:39:13;14.90;99.90
7290;DHT22;63176;52.678;13.250;2022-09-01T06:41:48;15.00;99.90
7290;DHT22;63176;52.678;13.250;2022-09-01T06:44:17;15.20;99.90
7290;DHT22;63176;52.678;13.250;2022-09-01T06:46:47;15.30;99.90
7290;DHT22;63176;52.678;13.250;2022-09-01T06:49:13;15.40;99.90
7290;DHT22;63176;52.678;13.250;2022-09-01T06:51:40;15.40;99.90
7290;DHT22;63176;52.678;13.250;2022-09-01T06:54:05;15.50;99.90
7290;DHT22;63176;52.678;13.250;2022-09-01T06:56:32;15.60;99.90
7290;DHT22;63176;52.678;13.250;2022-09-01T06:59:01;15.80;99.90
7290;DHT22;63176;52.678;13.250;2022-09-01T07:01:32;15.80;99.90
7290;DHT22;63176;52.678;13.250;2022-09-01T07:03:59;16.00;99.90
7290;DHT22;63176;52.678;13.250;2022-09-01T07:06:25;16.10;99.90
7290;DHT22;63176;52.678;13.250;2022-09-01T07:08:58;16.20;99.90
7290;DHT22;63176;52.678;13.250;2022-09-01T07:11:27;16.20;99.90
7290;DHT22;63176;52.678;13.250;2022-09-01T07:14:02;16.30;99.90
7290;DHT22;63176;52.678;13.250;2022-09-01T07:16:30;16.40;99.90
7290;DHT22;63176;52.678;13.250;2022-09-01T07:19:00;16.50;99.90
7290;DHT22;63176;52.678;13.250;2022-09-01T07:21:28;16.60;99.90
7290;DHT22;63176;52.678;13.250;2022-09-01T07:23:53;16.70;99.90
7290;DHT22;63176;52.678;13.250;2022-09-01T07:26:20;16.80;99.90
7290;DHT22;63176;52.678;13.250;2022-09-01T07:28:49;16.90;99.90
7290;DHT22;63176;52.678;13.250;2022-09-01T07:31:22;16.90;99.90
7290;DHT22;63176;52.678;13.250;2022-09-01T07:33:49;17.00;99.90
7290;DHT22;63176;52.678;13.250;2022-09-01T07:36:16;17.10;99.90
7290;DHT22;63176;52.678;13.250;2022-09-01T07:38:42;17.20;99.90
7290;DHT22;63176;52.678;13.250;2022-09-01T07:41:09;17.30;99.90
7290;DHT22;63176;52.678;13.250;2022-09-01T07:43:37;17.30;99.90
7290;DHT22;63176;52.678;13.250;2022-09-01T07:46:04;17.40;99.90
7290;DHT22;63176;52.678;13.250;2022-09-01T07:48:31;17.50;99.90
7290;DHT22;63176;52.678;13.250;2022-09-01T07:50:57;17.60;99.90
7290;DHT22;63176;52.678;13.250;2022-09-01T07:53:23;17.70;99.90
7290;DHT22;63176;52.678;13.250;2022-09-01T07:55:52;17.70;99.90
7290;DHT22;63176;52.678;13.250;2022-09-01T07:58:23;17.80;99.90
7290;DHT22;63176;52.678;13.250;2022-09-01T08:00:49;17.90;99.90
7290;DHT22;63176;52.678;13.250;2022-09-01T08:03:21;18.00;99.90
7290;DHT22;63176;52.678;13.250;2022-09-01T08:05:48;18.00;99.90
7290;DHT22;63176;52.678;13.250;2022-09-01T08:08:18;18.10;99.90
7290;DHT22;63176;52.678;13.250;2022-09-01T08:10:45;18.20;99.90
7290;DHT22;63176;52.678;13.250;2022-09-01T08:13:11;18.30;99.90
7290;DHT22;63176;52.678;13.250;2022-09-01T08:15:39;18.40;99.90
7290;DHT22;63176;52.678;13.250;2022-09-01T08:18:05;18.40;99.90
7290;DHT22;63176;52.678;13.250;2022-09-01T08:20:31;18.50;99.90
7290;DHT22;63176;52.678;13.250;2022-09-01T08:23:00;18.60;99.90
7290;DHT22;63176;52.678;13.250;2022-09-01T08:25:26;18.60;99.90
7290;DHT22;63176;52.678;13.250;2022-09-01T08:27:52;18.60;99.90
7290;DHT22;63176;52.678;13.250;2022-09-01T08:30:18;18.70;99.90
7290;DHT22;63176;52.678;13.250;2022-09-01T08:32:43;18.80;99.90
7290;DHT22;63176;52.678;13.250;2022-09-01T08:35:11;18.90;99.90
7290;DHT22;63176;52.678;13.250;2022-09-01T08:37:37;18.90;99.90
7290;DHT22;63176;52.678;13.250;2022-09-01T08:40:07;19.00;99.90
7290;DHT22;63176;52.678;13.250;2022-09-01T08:47:55;19.30;99.90
7290;DHT22;63176;52.678;13.250;2022-09-01T08:50:21;19.40;99.90
7290;DHT22;63176;52.678;13.250;2022-09-01T08:53:02;19.60;99.90
7290;DHT22;63176;52.678;13.250;2022-09-01T08:55:38;19.60;99.90
7290;DHT22;63176;52.678;13.250;2022-09-01T08:58:05;19.60;99.90
7290;DHT22;63176;52.678;13.250;2022-09-01T09:00:40;19.80;99.90
7290;DHT22;63176;52.678;13.250;2022-09-01T09:05:54;20.00;99.90
7290;DHT22;63176;52.678;13.250;2022-09-01T09:16:34;20.50;99.90
7290;DHT22;63176;52.678;13.250;2022-09-01T09:21:50;20.80;99.90
7290;DHT22;63176;52.678;13.250;2022-09-01T09:29:50;21.30;99.90
7290;DHT22;63176;52.678;13.250;2022-09-01T09:32:18;21.40;99.90
7290;DHT22;63176;52.678;13.250;2022-09-01T09:34:45;21.50;99.90
7290;DHT22;63176;52.678;13.250;2022-09-01T09:37:26;21.70;99.90
7290;DHT22;63176;52.678;13.250;2022-09-01T09:42:39;22.30;99.90
7290;DHT22;63176;52.678;13.250;2022-09-01T09:45:20;22.70;99.90
7290;DHT22;63176;52.678;13.250;2022-09-01T09:47:46;23.80;99.90
7290;DHT22;63176;52.678;13.250;2022-09-01T09:50:22;25.10;99.90
7290;DHT22;63176;52.678;13.250;2022-09-01T09:52:50;26.20;99.90
7290;DHT22;63176;52.678;13.250;2022-09-01T09:55:23;27.20;99.90
7290;DHT22;63176;52.678;13.250;2022-09-01T09:57:53;27.80;99.90
7290;DHT22;63176;52.678;13.250;2022-09-01T10:00:29;28.40;99.90
7290;DHT22;63176;52.678;13.250;2022-09-01T10:03:05;28.60;99.90
7290;DHT22;63176;52.678;13.250;2022-09-01T10:05:42;28.40;99.90
7290;DHT22;63176;52.678;13.250;2022-09-01T10:10:52;28.10;99.90
7290;DHT22;63176;52.678;13.250;2022-09-01T10:13:20;27.60;99.90
7290;DHT22;63176;52.678;13.250;2022-09-01T10:15:49;27.40;99.90
7290;DHT22;63176;52.678;13.250;2022-09-01T10:18:18;27.20;99.90
7290;DHT22;63176;52.678;13.250;2022-09-01T10:20:56;27.10;99.90
7290;DHT22;63176;52.678;13.250;2022-09-01T10:23:24;26.90;99.90
7290;DHT22;63176;52.678;13.250;2022-09-01T10:26:01;26.90;99.90
7290;DHT22;63176;52.678;13.250;2022-09-01T10:28:28;26.90;99.90
7290;DHT22;63176;52.678;13.250;2022-09-01T10:30:56;26.90;99.90
7290;DHT22;63176;52.678;13.250;2022-09-01T10:33:24;26.80;99.90
7290;DHT22;63176;52.678;13.250;2022-09-01T10:35:53;26.80;99.90
7290;DHT22;63176;52.678;13.250;2022-09-01T10:38:27;26.60;99.90
7290;DHT22;63176;52.678;13.250;2022-09-01T10:40:55;26.70;99.90
7290;DHT22;63176;52.678;13.250;2022-09-01T10:48:51;26.80;99.90
7290;DHT22;63176;52.678;13.250;2022-09-01T10:56:25;27.10;99.90
7290;DHT22;63176;52.678;13.250;2022-09-01T11:04:12;25.90;99.90
7290;DHT22;63176;52.678;13.250;2022-09-01T11:10:22;24.70;99.90
7290;DHT22;63176;52.678;13.250;2022-09-01T11:19:58;23.10;99.90
7290;DHT22;63176;52.678;13.250;2022-09-01T11:22:26;22.90;99.90
7290;DHT22;63176;52.678;13.250;2022-09-01T11:28:05;22.50;99.90
7290;DHT22;63176;52.678;13.250;2022-09-01T11:36:30;22.10;99.90
7290;DHT22;63176;52.678;13.250;2022-09-01T11:39:07;21.90;99.90
7290;DHT22;63176;52.678;13.250;2022-09-01T11:41:53;21.90;99.90
7290;DHT22;63176;52.678;13.250;2022-09-01T11:47:05;21.50;99.90
7290;DHT22;63176;52.678;13.250;2022-09-01T11:49:39;21.50;99.90
7290;DHT22;63176;52.678;13.250;2022-09-01T11:52:05;21.40;99.90
7290;DHT22;63176;52.678;13.250;2022-09-01T11:54:39;21.50;99.90
7290;DHT22;63176;52.678;13.250;2022-09-01T11:57:35;21.80;99.90
7290;DHT22;63176;52.678;13.250;2022-09-01T12:00:07;22.30;99.90
7290;DHT22;63176;52.678;13.250;2022-09-01T12:02:35;22.90;99.90
7290;DHT22;63176;52.678;13.250;2022-09-01T12:05:30;23.20;99.90
7290;DHT22;63176;52.678;13.250;2022-09-01T12:07:57;23.20;99.90
7290;DHT22;63176;52.678;13.250;2022-09-01T12:10:33;23.10;99.90
7290;DHT22;63176;52.678;13.250;2022-09-01T12:13:18;23.30;99.90
7290;DHT22;63176;52.678;13.250;2022-09-01T12:15:55;23.60;99.90
7290;DHT22;63176;52.678;13.250;2022-09-01T12:18:28;24.00;99.90
7290;DHT22;63176;52.678;13.250;2022-09-01T12:20:57;24.30;99.90
7290;DHT22;63176;52.678;13.250;2022-09-01T12:26:07;24.50;99.90
7290;DHT22;63176;52.678;13.250;2022-09-01T12:28:34;24.50;99.90
7290;DHT22;63176;52.678;13.250;2022-09-01T12:31:03;24.60;99.90
7290;DHT22;63176;52.678;13.250;2022-09-01T12:33:31;24.60;99.90
7290;DHT22;63176;52.678;13.250;2022-09-01T12:38:39;25.10;99.90
7290;DHT22;63176;52.678;13.250;2022-09-01T12:41:22;25.20;99.90
7290;DHT22;63176;52.678;13.250;2022-09-01T12:43:48;25.30;99.90
7290;DHT22;63176;52.678;13.250;2022-09-01T12:46:44;25.50;99.90
7290;DHT22;63176;52.678;13.250;2022-09-01T12:49:22;25.70;99.90
7290;DHT22;63176;52.678;13.250;2022-09-01T12:52:04;25.90;99.90
7290;DHT22;63176;52.678;13.250;2022-09-01T12:54:30;26.00;99.90
7290;DHT22;63176;52.678;13.250;2022-09-01T12:56:55;25.90;99.90
7290;DHT22;63176;52.678;13.250;2022-09-01T12:59:25;25.90;99.90
7290;DHT22;63176;52.678;13.250;2022-09-01T13:01:51;25.80;99.90
7290;DHT22;63176;52.678;13.250;2022-09-01T13:06:45;26.30;99.90
7290;DHT22;63176;52.678;13.250;2022-09-01T13:09:11;26.50;99.90
7290;DHT22;63176;52.678;13.250;2022-09-01T13:11:37;26.70;99.90
7290;DHT22;63176;52.678;13.250;2022-09-01T13:14:03;26.70;99.90
7290;DHT22;63176;52.678;13.250;2022-09-01T13:16:29;26.50;99.90
7290;DHT22;63176;52.678;13.250;2022-09-01T13:18:54;26.40;99.90
7290;DHT22;63176;52.678;13.250;2022-09-01T13:21:20;26.80;99.90
7290;DHT22;63176;52.678;13.250;2022-09-01T13:23:46;27.10;99.90
7290;DHT22;63176;52.678;13.250;2022-09-01T13:26:13;27.40;99.90
7290;DHT22;63176;52.678;13.250;2022-09-01T13:28:39;27.60;99.90
7290;DHT22;63176;52.678;13.250;2022-09-01T13:31:05;27.60;99.90
7290;DHT22;63176;52.678;13.250;2022-09-01T13:33:32;27.40;99.90
7290;DHT22;63176;52.678;13.250;2022-09-01T13:35:59;27.50;99.90
7290;DHT22;63176;52.678;13.250;2022-09-01T13:38:25;27.80;99.90
7290;DHT22;63176;52.678;13.250;2022-09-01T13:40:50;28.00;99.90
7290;DHT22;63176;52.678;13.250;2022-09-01T13:43:21;27.80;99.90
7290;DHT22;63176;52.678;13.250;2022-09-01T13:45:47;27.80;99.90
7290;DHT22;63176;52.678;13.250;2022-09-01T13:48:15;27.50;99.90
7290;DHT22;63176;52.678;13.250;2022-09-01T13:50:41;26.90;99.90
7290;DHT22;63176;52.678;13.250;2022-09-01T13:53:07;26.30;99.90
7290;DHT22;63176;52.678;13.250;2022-09-01T13:55:39;25.80;99.90
7290;DHT22;63176;52.678;13.250;2022-09-01T13:58:05;25.40;99.90
7290;DHT22;63176;52.678;13.250;2022-09-01T14:00:34;25.00;99.90
7290;DHT22;63176;52.678;13.250;2022-09-01T14:03:04;24.60;99.90
7290;DHT22;63176;52.678;13.250;2022-09-01T14:05:37;24.40;99.90
7290;DHT22;63176;52.678;13.250;2022-09-01T14:08:04;24.20;99.90
7290;DHT22;63176;52.678;13.250;2022-09-01T14:10:31;24.10;99.90
7290;DHT22;63176;52.678;13.250;2022-09-01T14:12:57;24.00;99.90
7290;DHT22;63176;52.678;13.250;2022-09-01T14:15:24;23.90;99.90
7290;DHT22;63176;52.678;13.250;2022-09-01T14:17:51;24.10;99.90
7290;DHT22;63176;52.678;13.250;2022-09-01T14:20:23;24.40;99.50
7290;DHT22;63176;52.678;13.250;2022-09-01T14:22:49;24.50;99.60
7290;DHT22;63176;52.678;13.250;2022-09-01T14:25:17;24.60;99.90
7290;DHT22;63176;52.678;13.250;2022-09-01T14:27:44;25.10;99.90
7290;DHT22;63176;52.678;13.250;2022-09-01T14:30:17;25.30;99.90
7290;DHT22;63176;52.678;13.250;2022-09-01T14:32:43;25.20;99.90
7290;DHT22;63176;52.678;13.250;2022-09-01T14:35:09;24.80;99.90
7290;DHT22;63176;52.678;13.250;2022-09-01T14:37:36;24.80;99.90
7290;DHT22;63176;52.678;13.250;2022-09-01T14:40:03;25.30;99.90
7290;DHT22;63176;52.678;13.250;2022-09-01T14:42:29;25.80;99.90
7290;DHT22;63176;52.678;13.250;2022-09-01T14:44:56;26.00;99.90
7290;DHT22;63176;52.678;13.250;2022-09-01T14:47:21;26.20;99.90
7290;DHT22;63176;52.678;13.250;2022-09-01T14:49:53;26.20;99.90
7290;DHT22;63176;52.678;13.250;2022-09-01T14:52:19;26.10;99.90
7290;DHT22;63176;52.678;13.250;2022-09-01T14:54:46;26.00;99.90
7290;DHT22;63176;52.678;13.250;2022-09-01T14:57:12;25.80;99.90
7290;DHT22;63176;52.678;13.250;2022-09-01T14:59:39;25.60;99.60
7290;DHT22;63176;52.678;13.250;2022-09-01T15:02:05;25.40;99.90
7290;DHT22;63176;52.678;13.250;2022-09-01T15:04:30;25.10;98.30
7290;DHT22;63176;52.678;13.250;2022-09-01T15:06:56;24.80;99.40
7290;DHT22;63176;52.678;13.250;2022-09-01T15:09:22;24.60;98.00
7290;DHT22;63176;52.678;13.250;2022-09-01T15:11:48;24.50;98.20
7290;DHT22;63176;52.678;13.250;2022-09-01T15:14:13;24.30;99.10
7290;DHT22;63176;52.678;13.250;2022-09-01T15:16:39;24.10;98.00
7290;DHT22;63176;52.678;13.250;2022-09-01T15:19:10;24.00;97.50
7290;DHT22;63176;52.678;13.250;2022-09-01T15:21:36;23.90;95.60
7290;DHT22;63176;52.678;13.250;2022-09-01T15:24:04;23.80;95.70
7290;DHT22;63176;52.678;13.250;2022-09-01T15:26:30;23.80;95.40
7290;DHT22;63176;52.678;13.250;2022-09-01T15:28:56;23.70;95.40
7290;DHT22;63176;52.678;13.250;2022-09-01T15:31:23;23.60;94.50
7290;DHT22;63176;52.678;13.250;2022-09-01T15:33:54;23.60;95.70
7290;DHT22;63176;52.678;13.250;2022-09-01T15:36:22;23.50;96.30
7290;DHT22;63176;52.678;13.250;2022-09-01T15:38:49;23.40;94.00
7290;DHT22;63176;52.678;13.250;2022-09-01T15:41:17;23.40;93.90
7290;DHT22;63176;52.678;13.250;2022-09-01T15:43:42;23.30;92.20
7290;DHT22;63176;52.678;13.250;2022-09-01T15:46:08;23.30;91.70
7290;DHT22;63176;52.678;13.250;2022-09-01T15:48:34;23.10;92.50
7290;DHT22;63176;52.678;13.250;2022-09-01T15:53:40;23.00;93.40
7290;DHT22;63176;52.678;13.250;2022-09-01T15:56:06;22.90;93.50
7290;DHT22;63176;52.678;13.250;2022-09-01T15:58:33;22.80;92.80
7290;DHT22;63176;52.678;13.250;2022-09-01T16:00:59;22.70;92.70
7290;DHT22;63176;52.678;13.250;2022-09-01T16:03:26;22.60;92.30
7290;DHT22;63176;52.678;13.250;2022-09-01T16:05:54;22.40;93.40
7290;DHT22;63176;52.678;13.250;2022-09-01T16:08:20;22.20;92.30
7290;DHT22;63176;52.678;13.250;2022-09-01T16:10:46;22.10;92.00
7290;DHT22;63176;52.678;13.250;2022-09-01T16:13:11;21.90;92.00
7290;DHT22;63176;52.678;13.250;2022-09-01T16:15:44;21.70;90.80
7290;DHT22;63176;52.678;13.250;2022-09-01T16:18:19;21.70;91.70
7290;DHT22;63176;52.678;13.250;2022-09-01T16:21:13;21.60;92.10
7290;DHT22;63176;52.678;13.250;2022-09-01T16:23:45;21.60;90.90
7290;DHT22;63176;52.678;13.250;2022-09-01T16:26:13;21.50;91.40
7290;DHT22;63176;52.678;13.250;2022-09-01T16:28:44;21.40;90.60
7290;DHT22;63176;52.678;13.250;2022-09-01T16:31:14;21.40;90.40
7290;DHT22;63176;52.678;13.250;2022-09-01T16:33:46;21.30;91.00
7290;DHT22;63176;52.678;13.250;2022-09-01T16:36:33;21.20;90.40
7290;DHT22;63176;52.678;13.250;2022-09-01T16:55:37;20.50;91.00
7290;DHT22;63176;52.678;13.250;2022-09-01T17:01:03;20.30;91.10
7290;DHT22;63176;52.678;13.250;2022-09-01T17:03:40;20.20;90.80
7290;DHT22;63176;52.678;13.250;2022-09-01T17:08:53;19.90;90.70
7290;DHT22;63176;52.678;13.250;2022-09-01T17:11:23;19.80;91.40
7290;DHT22;63176;52.678;13.250;2022-09-01T17:13:51;19.60;91.60
7290;DHT22;63176;52.678;13.250;2022-09-01T17:16:31;19.50;92.10
7290;DHT22;63176;52.678;13.250;2022-09-01T17:19:13;19.40;92.10
7290;DHT22;63176;52.678;13.250;2022-09-01T17:24:38;19.10;92.00
7290;DHT22;63176;52.678;13.250;2022-09-01T17:29:54;18.80;92.60
7290;DHT22;63176;52.678;13.250;2022-09-01T17:35:35;18.60;92.20